createdAt,value
2022-12-23T00:01:03.456Z,97596.22
2022-12-23T00:02:05.421Z,97599.66
2022-12-23T00:03:07.747Z,97609.56
2022-12-23T00:04:09.682Z,97610.38
2022-12-23T00:05:13.218Z,97606.28
2022-12-23T00:06:17.637Z,97606.28
2022-12-23T00:07:19.369Z,97598.38
2022-12-23T00:08:22.319Z,97591.72
2022-12-23T00:09:24.022Z,97587.03
2022-12-23T00:10:25.767Z,97592.31
2022-12-23T00:11:28.699Z,97593.91
2022-12-23T00:12:48.918Z,97606.28
2022-12-23T00:14:12.176Z,97606.88
2022-12-23T00:15:18.214Z,97610.13
2022-12-23T00:16:20.078Z,97608.09
2022-12-23T00:17:23.173Z,97606.03
2022-12-23T00:18:25.185Z,97611.09
2022-12-23T00:19:26.942Z,97601.13
2022-12-23T00:20:28.751Z,97603.53
2022-12-23T00:21:30.483Z,97597.28
2022-12-23T00:22:50.754Z,97602.34
2022-12-23T00:23:52.593Z,97593.84
2022-12-23T00:24:54.301Z,97596.66
2022-12-23T00:25:56.123Z,97604.38
2022-12-23T00:26:57.859Z,97589.38
2022-12-23T00:28:02.536Z,97599.91
2022-12-23T00:29:04.304Z,97599.69
2022-12-23T00:30:09.564Z,97597.88
2022-12-23T00:31:13.285Z,97598.88
2022-12-23T00:32:15.241Z,97591.00
2022-12-23T00:33:20.815Z,97590.19
2022-12-23T00:34:22.646Z,97589.19
2022-12-23T00:35:24.412Z,97581.72
2022-12-23T00:36:30.747Z,97586.41
2022-12-23T00:37:32.658Z,97583.97
2022-12-23T00:38:52.953Z,97593.28
2022-12-23T00:40:13.400Z,97591.69
2022-12-23T00:41:37.278Z,97595.13
2022-12-23T00:42:54.100Z,97589.63
2022-12-23T00:43:55.959Z,97594.31
2022-12-23T00:45:15.331Z,97599.97
2022-12-23T00:46:17.552Z,97595.50
2022-12-23T00:47:37.878Z,97598.94
2022-12-23T00:48:58.177Z,97590.81
2022-12-23T00:49:59.923Z,97594.25
2022-12-23T00:51:01.636Z,97595.84
2022-12-23T00:52:05.530Z,97600.72
2022-12-23T00:53:07.338Z,97598.09
2022-12-23T00:54:09.088Z,97597.88
2022-12-23T00:55:10.903Z,97592.16
2022-12-23T00:56:12.691Z,97595.00
2022-12-23T00:57:14.473Z,97600.88
2022-12-23T00:58:20.937Z,97602.47
2022-12-23T00:59:22.645Z,97592.16
2022-12-23T01:00:45.093Z,97598.22
2022-12-23T01:02:05.680Z,97597.00
2022-12-23T01:03:30.734Z,97602.25
2022-12-23T01:04:51.440Z,97606.94
2022-12-23T01:06:02.051Z,97611.19
2022-12-23T01:07:05.425Z,97607.53
2022-12-23T01:08:12.272Z,97591.72
2022-12-23T01:09:14.339Z,97602.25
2022-12-23T01:10:16.104Z,97594.97
2022-12-23T01:11:18.234Z,97596.59
2022-12-23T01:12:20.041Z,97603.47
2022-12-23T01:13:22.352Z,97605.88
2022-12-23T01:14:24.229Z,97599.81
2022-12-23T01:15:26.053Z,97602.22
2022-12-23T01:16:27.809Z,97606.25
2022-12-23T01:17:30.293Z,97605.44
2022-12-23T01:18:34.143Z,97610.50
2022-12-23T01:19:36.519Z,97616.34
2022-12-23T01:20:39.964Z,97611.06
2022-12-23T01:21:41.795Z,97619.19
2022-12-23T01:22:43.616Z,97621.03
2022-12-23T01:23:45.497Z,97625.28
2022-12-23T01:24:47.236Z,97618.97
2022-12-23T01:25:58.145Z,97615.34
2022-12-23T01:27:00.622Z,97608.03
2022-12-23T01:28:02.331Z,97609.88
2022-12-23T01:29:04.413Z,97618.56
2022-12-23T01:30:07.018Z,97615.13
2022-12-23T01:31:10.971Z,97623.41
2022-12-23T01:32:12.738Z,97621.78
2022-12-23T01:33:14.476Z,97617.09
2022-12-23T01:34:16.402Z,97622.38
2022-12-23T01:35:18.187Z,97633.94
2022-12-23T01:36:21.644Z,97632.72
2022-12-23T01:37:23.623Z,97630.88
2022-12-23T01:38:25.389Z,97628.81
2022-12-23T01:39:27.120Z,97635.75
2022-12-23T01:40:39.752Z,97636.53
2022-12-23T01:41:59.922Z,97635.28
2022-12-23T01:43:01.719Z,97627.16
2022-12-23T01:44:04.021Z,97632.22
2022-12-23T01:45:19.060Z,97632.22
2022-12-23T01:46:20.912Z,97631.19
2022-12-23T01:47:53.570Z,97633.59
2022-12-23T01:48:56.472Z,97634.41
2022-12-23T01:50:32.992Z,97633.41
2022-12-23T01:51:35.305Z,97623.69
2022-12-23T01:53:09.673Z,97632.97
2022-12-23T01:54:11.493Z,97634.81
2022-12-23T01:55:19.013Z,97640.44
2022-12-23T01:56:33.173Z,97634.38
2022-12-23T01:57:40.921Z,97637.59
2022-12-23T01:58:50.972Z,97635.75
2022-12-23T02:00:12.047Z,97636.56
2022-12-23T02:01:32.439Z,97635.53
2022-12-23T02:02:55.685Z,97639.78
2022-12-23T02:04:02.715Z,97643.06
2022-12-23T02:05:04.947Z,97643.06
2022-12-23T02:06:25.915Z,97643.66
2022-12-23T02:07:46.820Z,97640.78
2022-12-23T02:09:07.244Z,97639.75
2022-12-23T02:10:09.902Z,97649.28
2022-12-23T02:11:14.213Z,97649.06
2022-12-23T02:12:43.140Z,97654.72
2022-12-23T02:14:38.973Z,97660.00
2022-12-23T02:16:18.698Z,97652.09
2022-12-23T02:17:47.924Z,97656.13
2022-12-23T02:18:58.379Z,97650.84
2022-12-23T02:20:30.957Z,97657.28
2022-12-23T02:21:57.908Z,97664.16
2022-12-23T02:23:37.093Z,97664.56
2022-12-23T02:25:26.719Z,97662.50
2022-12-23T02:26:43.505Z,97669.41
2022-12-23T02:28:04.022Z,97668.16
2022-12-23T02:29:33.519Z,97675.44
2022-12-23T02:30:57.288Z,97664.88
2022-12-23T02:32:45.233Z,97672.13
2022-12-23T02:33:56.586Z,97667.66
2022-12-23T02:35:36.782Z,97668.81
2022-12-23T02:37:06.211Z,97675.72
2022-12-23T02:38:34.223Z,97669.78
2022-12-23T02:39:58.439Z,97684.59
2022-12-23T02:41:26.009Z,97678.06
2022-12-23T02:42:45.317Z,97678.66
2022-12-23T02:44:00.013Z,97689.56
2022-12-23T02:45:26.400Z,97684.88
2022-12-23T02:46:37.039Z,97687.06
2022-12-23T02:47:47.886Z,97685.25
2022-12-23T02:48:53.493Z,97690.09
2022-12-23T02:50:01.735Z,97701.81
2022-12-23T02:51:07.433Z,97697.13
2022-12-23T02:52:18.375Z,97700.34
2022-12-23T02:53:48.940Z,97704.59
2022-12-23T02:55:01.759Z,97706.81
2022-12-23T02:56:08.679Z,97712.69
2022-12-23T02:57:15.343Z,97707.41
2022-12-23T02:58:23.642Z,97710.63
2022-12-23T02:59:33.693Z,97713.63
2022-12-23T03:00:40.488Z,97716.88
2022-12-23T03:01:45.389Z,97714.34
2022-12-23T03:02:47.727Z,97709.88
2022-12-23T03:03:51.166Z,97723.44
2022-12-23T03:04:52.997Z,97713.72
2022-12-23T03:05:55.948Z,97717.72
2022-12-23T03:07:05.918Z,97716.47
2022-12-23T03:08:25.445Z,97728.66
2022-12-23T03:09:57.972Z,97721.53
2022-12-23T03:11:15.306Z,97729.22
2022-12-23T03:12:25.282Z,97728.19
2022-12-23T03:14:10.540Z,97736.72
2022-12-23T03:15:44.990Z,97729.81
2022-12-23T03:17:26.464Z,97732.25
2022-12-23T03:19:03.224Z,97742.59
2022-12-23T03:20:44.112Z,97746.03
2022-12-23T03:22:08.243Z,97748.47
2022-12-23T03:23:25.410Z,97750.88
2022-12-23T03:24:59.310Z,97742.75
2022-12-23T03:26:21.046Z,97748.63
2022-12-23T03:27:45.182Z,97754.50
2022-12-23T03:29:10.971Z,97752.69
2022-12-23T03:30:18.734Z,97752.44
2022-12-23T03:31:29.260Z,97757.72
2022-12-23T03:32:39.008Z,97758.31
2022-12-23T03:33:46.879Z,97759.91
2022-12-23T03:34:53.766Z,97753.59
2022-12-23T03:36:10.039Z,97770.84
2022-12-23T03:37:17.063Z,97763.53
2022-12-23T03:38:20.551Z,97768.59
2022-12-23T03:39:32.093Z,97771.81
2022-12-23T03:40:43.425Z,97769.38
2022-12-23T03:41:53.969Z,97767.91
2022-12-23T03:43:04.774Z,97767.09
2022-12-23T03:44:22.917Z,97779.84
2022-12-23T03:45:43.664Z,97774.56
2022-12-23T03:47:15.473Z,97771.94
2022-12-23T03:48:29.560Z,97775.38
2022-12-23T03:49:40.147Z,97778.81
2022-12-23T03:50:45.185Z,97773.53
2022-12-23T03:52:03.228Z,97774.97
2022-12-23T03:53:22.479Z,97775.75
2022-12-23T03:54:32.269Z,97775.75
2022-12-23T03:55:48.350Z,97771.28
2022-12-23T03:57:01.380Z,97773.13
2022-12-23T03:58:26.956Z,97782.44
2022-12-23T03:59:36.553Z,97781.63
2022-12-23T04:00:49.575Z,97778.97
2022-12-23T04:02:24.778Z,97781.63
2022-12-23T04:04:02.412Z,97785.06
2022-12-23T04:05:18.102Z,97781.63
2022-12-23T04:06:21.984Z,97787.72
2022-12-23T04:07:45.915Z,97786.91
2022-12-23T04:08:49.923Z,97790.38
2022-12-23T04:09:54.400Z,97795.88
2022-12-23T04:10:57.945Z,97800.94
2022-12-23T04:11:59.835Z,97796.69
2022-12-23T04:13:01.939Z,97804.38
2022-12-23T04:14:03.739Z,97808.06
2022-12-23T04:15:12.490Z,97812.31
2022-12-23T04:16:15.934Z,97807.84
2022-12-23T04:17:19.093Z,97800.72
2022-12-23T04:18:21.636Z,97806.56
2022-12-23T04:19:23.528Z,97809.22
2022-12-23T04:20:26.110Z,97801.28
2022-12-23T04:21:27.882Z,97800.47
2022-12-23T04:22:29.644Z,97815.13
2022-12-23T04:23:31.408Z,97811.44
2022-12-23T04:24:33.175Z,97807.75
2022-12-23T04:25:34.920Z,97813.06
2022-12-23T04:26:36.708Z,97815.47
2022-12-23T04:27:39.257Z,97814.44
2022-12-23T04:28:41.010Z,97813.41
2022-12-23T04:29:43.894Z,97820.53
2022-12-23T04:30:45.672Z,97820.31
2022-12-23T04:31:47.514Z,97822.38
2022-12-23T04:32:49.309Z,97824.56
2022-12-23T04:33:51.108Z,97820.31
2022-12-23T04:34:52.994Z,97827.44
2022-12-23T04:35:54.756Z,97821.91
2022-12-23T04:36:56.621Z,97822.72
2022-12-23T04:37:58.485Z,97826.97
2022-12-23T04:39:00.285Z,97825.13
2022-12-23T04:40:02.121Z,97826.16
2022-12-23T04:41:04.079Z,97822.50
2022-12-23T04:42:06.073Z,97819.66
2022-12-23T04:43:07.865Z,97825.94
2022-12-23T04:44:09.718Z,97821.47
2022-12-23T04:45:11.526Z,97828.38
2022-12-23T04:46:13.373Z,97832.88
2022-12-23T04:47:15.185Z,97829.19
2022-12-23T04:48:18.027Z,97840.34
2022-12-23T04:49:19.831Z,97842.63
2022-12-23T04:50:21.679Z,97844.25
2022-12-23T04:51:23.735Z,97840.81
2022-12-23T04:52:25.484Z,97846.66
2022-12-23T04:53:27.190Z,97841.59
2022-12-23T04:54:29.007Z,97843.22
2022-12-23T04:55:30.712Z,97844.03
2022-12-23T04:56:32.495Z,97843.22
2022-12-23T04:57:34.443Z,97845.88
2022-12-23T04:58:36.274Z,97843.44
2022-12-23T04:59:38.037Z,97846.91
2022-12-23T05:00:40.209Z,97839.53
2022-12-23T05:01:43.040Z,97839.53
2022-12-23T05:02:45.077Z,97843.81
2022-12-23T05:03:46.920Z,97849.31
2022-12-23T05:04:48.719Z,97848.28
2022-12-23T05:05:50.461Z,97841.97
2022-12-23T05:06:52.330Z,97852.53
2022-12-23T05:08:06.105Z,97844.38
2022-12-23T05:09:07.938Z,97848.06
2022-12-23T05:10:10.657Z,97844.97
2022-12-23T05:11:12.384Z,97852.09
2022-12-23T05:12:14.170Z,97842.53
2022-12-23T05:13:16.012Z,97846.00
2022-12-23T05:14:17.762Z,97851.63
2022-12-23T05:15:19.514Z,97844.16
2022-12-23T05:16:21.501Z,97848.41
2022-12-23T05:17:23.541Z,97839.44
2022-12-23T05:18:25.299Z,97839.44
2022-12-23T05:19:27.068Z,97842.09
2022-12-23T05:20:28.894Z,97837.59
2022-12-23T05:21:30.823Z,97842.88
2022-12-23T05:22:32.555Z,97834.97
2022-12-23T05:23:34.371Z,97846.94
2022-12-23T05:24:36.151Z,97845.34
2022-12-23T05:25:39.287Z,97841.06
2022-12-23T05:26:43.825Z,97842.47
2022-12-23T05:27:49.432Z,97850.63
2022-12-23T05:28:51.309Z,97843.50
2022-12-23T05:29:53.073Z,97846.16
2022-12-23T05:31:07.021Z,97849.59
2022-12-23T05:32:08.976Z,97854.06
2022-12-23T05:33:10.868Z,97861.78
2022-12-23T05:34:12.634Z,97859.94
2022-12-23T05:35:14.482Z,97850.41
2022-12-23T05:36:16.229Z,97853.84
2022-12-23T05:37:18.111Z,97854.66
2022-12-23T05:38:20.424Z,97860.75
2022-12-23T05:39:22.222Z,97857.31
2022-12-23T05:40:25.897Z,97858.91
2022-12-23T05:41:30.972Z,97850.16
2022-12-23T05:42:32.707Z,97856.25
2022-12-23T05:43:34.601Z,97856.25
2022-12-23T05:44:36.302Z,97858.69
2022-12-23T05:45:38.627Z,97856.25
2022-12-23T05:46:40.470Z,97859.72
2022-12-23T05:47:42.209Z,97862.38
2022-12-23T05:48:43.926Z,97869.25
2022-12-23T05:49:45.704Z,97864.78
2022-12-23T05:50:51.099Z,97861.09
2022-12-23T05:51:52.928Z,97862.38
2022-12-23T05:52:57.777Z,97858.34
2022-12-23T05:53:59.544Z,97859.72
2022-12-23T05:55:01.293Z,97867.88
2022-12-23T05:56:06.966Z,97873.75
2022-12-23T05:57:08.813Z,97866.28
2022-12-23T05:58:10.625Z,97866.28
2022-12-23T05:59:12.433Z,97869.50
2022-12-23T06:00:14.936Z,97863.41
2022-12-23T06:01:16.664Z,97868.09
2022-12-23T06:02:18.630Z,97861.78
2022-12-23T06:03:20.669Z,97867.66
2022-12-23T06:04:22.575Z,97863.16
2022-12-23T06:05:24.379Z,97863.16
2022-12-23T06:06:26.163Z,97861.56
2022-12-23T06:07:27.952Z,97861.78
2022-12-23T06:08:29.827Z,97864.44
2022-12-23T06:09:31.557Z,97866.28
2022-12-23T06:10:33.316Z,97863.41
2022-12-23T06:11:35.039Z,97866.03
2022-12-23T06:12:37.736Z,97858.56
2022-12-23T06:13:39.457Z,97859.56
2022-12-23T06:14:41.234Z,97864.03
2022-12-23T06:15:43.027Z,97867.31
2022-12-23T06:16:44.852Z,97868.09
2022-12-23T06:17:46.687Z,97868.09
2022-12-23T06:18:48.463Z,97870.16
2022-12-23T06:19:50.219Z,97874.19
2022-12-23T06:20:51.946Z,97873.41
2022-12-23T06:21:53.717Z,97876.03
2022-12-23T06:22:55.488Z,97872.78
2022-12-23T06:23:57.440Z,97874.44
2022-12-23T06:24:59.232Z,97877.66
2022-12-23T06:26:02.774Z,97877.66
2022-12-23T06:27:04.499Z,97876.84
2022-12-23T06:28:07.932Z,97884.78
2022-12-23T06:29:11.020Z,97883.16
2022-12-23T06:30:14.204Z,97877.28
2022-12-23T06:31:16.329Z,97883.16
2022-12-23T06:32:18.538Z,97875.44
2022-12-23T06:33:20.398Z,97878.69
2022-12-23T06:34:22.151Z,97875.00
2022-12-23T06:35:23.974Z,97877.66
2022-12-23T06:36:25.681Z,97879.50
2022-12-23T06:37:27.499Z,97879.09
2022-12-23T06:38:29.262Z,97883.16
2022-12-23T06:39:31.009Z,97884.19
2022-12-23T06:40:32.793Z,97869.34
2022-12-23T06:41:34.548Z,97875.44
2022-12-23T06:42:36.372Z,97874.44
2022-12-23T06:43:38.157Z,97871.56
2022-12-23T06:44:39.872Z,97868.91
2022-12-23T06:45:46.763Z,97871.56
2022-12-23T06:46:48.532Z,97883.97
2022-12-23T06:47:50.498Z,97881.34
2022-12-23T06:48:52.271Z,97890.88
2022-12-23T06:49:54.855Z,97890.88
2022-12-23T06:50:56.632Z,97897.78
2022-12-23T06:51:58.380Z,97890.06
2022-12-23T06:53:00.289Z,97889.63
2022-12-23T06:54:02.567Z,97887.19
2022-12-23T06:55:05.170Z,97895.94
2022-12-23T06:56:07.135Z,97881.09
2022-12-23T06:57:08.945Z,97895.13
2022-12-23T06:58:10.867Z,97900.44
2022-12-23T06:59:12.698Z,97900.44
2022-12-23T07:00:15.517Z,97892.25
2022-12-23T07:01:17.381Z,97902.03
2022-12-23T07:02:19.364Z,97902.84
2022-12-23T07:03:21.865Z,97911.59
2022-12-23T07:04:23.720Z,97907.09
2022-12-23T07:05:25.455Z,97903.66
2022-12-23T07:06:27.313Z,97903.28
2022-12-23T07:07:29.159Z,97906.53
2022-12-23T07:08:30.916Z,97909.97
2022-12-23T07:09:32.712Z,97913.66
2022-12-23T07:10:34.699Z,97907.31
2022-12-23T07:11:36.456Z,97908.34
2022-12-23T07:12:38.620Z,97911.59
2022-12-23T07:13:40.905Z,97918.72
2022-12-23T07:14:42.968Z,97911.00
2022-12-23T07:15:44.733Z,97914.47
2022-12-23T07:16:46.673Z,97920.31
2022-12-23T07:17:48.457Z,97918.50
2022-12-23T07:18:50.236Z,97919.53
2022-12-23T07:19:51.976Z,97913.41
2022-12-23T07:20:53.726Z,97917.69
2022-12-23T07:21:55.468Z,97909.75
2022-12-23T07:22:58.110Z,97920.09
2022-12-23T07:24:00.139Z,97914.22
2022-12-23T07:25:01.974Z,97922.97
2022-12-23T07:26:04.999Z,97918.72
2022-12-23T07:27:06.747Z,97920.09
2022-12-23T07:28:08.604Z,97919.06
2022-12-23T07:29:10.380Z,97920.69
2022-12-23T07:30:12.412Z,97913.78
2022-12-23T07:31:14.297Z,97915.63
2022-12-23T07:32:16.116Z,97912.97
2022-12-23T07:33:18.135Z,97920.69
2022-12-23T07:34:21.941Z,97916.41
2022-12-23T07:35:25.742Z,97919.88
